Time;durP1;ratioP1;P1;durP2;ratioP2;P2;SDS_P1;SDS_P2;PMS_P1;PMS_P2;Temp;Humidity;BMP_temperature;BMP_pressure;BME280_temperature;BME280_humidity;BME280_pressure;Samples;Min_cycle;Max_cycle;Signal;HPM_P1;HPM_P2
2022/05/08 00:02:59;;;;;;;;;;;;;;;21.82;42.78;96090.41;10342486;28;1870;-57
2022/05/08 00:07:59;;;;;;;;;;;;;;;21.81;42.98;96092.25;10350550;28;1906;-57
2022/05/08 00:13:00;;;;;;;;;;;;;;;21.82;42.71;96093.81;10355312;28;1821;-56
2022/05/08 00:18:00;;;;;;;;;;;;;;;21.81;42.74;96094.91;10354841;28;1900;-56
2022/05/08 00:23:00;;;;;;;;;;;;;;;21.83;42.95;96094.63;10352433;28;1891;-57
2022/05/08 00:28:01;;;;;;;;;;;;;;;21.82;42.91;96090.41;10321327;28;4393;-56
2022/05/08 00:33:01;;;;;;;;;;;;;;;21.82;42.84;96088.53;10355255;28;4451;-54
2022/05/08 00:38:02;;;;;;;;;;;;;;;21.83;42.69;96084.84;10350908;28;1925;-56
2022/05/08 00:43:21;;;;;;;;;;;;;;;21.83;42.56;96084.06;10353309;28;2019;-56
2022/05/08 00:48:21;;;;;;;;;;;;;;;21.82;42.57;96083.25;10352926;28;2145;-55
2022/05/08 00:53:22;;;;;;;;;;;;;;;21.80;42.70;96079.31;10352415;28;1921;-55
2022/05/08 00:58:22;;;;;;;;;;;;;;;21.79;42.66;96075.09;10347110;28;1939;-57
2022/05/08 01:03:22;;;;;;;;;;;;;;;21.75;42.66;96074.03;10357179;28;1959;-57
2022/05/08 01:08:24;;;;;;;;;;;;;;;21.77;42.93;96074.56;10347672;28;1973;-57
2022/05/08 01:13:25;;;;;;;;;;;;;;;21.77;42.53;96066.66;10338364;28;1920;-56
2022/05/08 01:18:34;;;;;;;;;;;;;;;21.78;42.64;96065.59;10334844;28;1861;-54
2022/05/08 01:23:35;;;;;;;;;;;;;;;21.76;42.80;96068.50;10338196;28;1971;-55
2022/05/08 01:28:36;;;;;;;;;;;;;;;21.79;42.73;96067.16;10330531;28;4301;-57
2022/05/08 01:33:39;;;;;;;;;;;;;;;21.79;42.58;96059.25;10346019;28;2022;-56
2022/05/08 01:38:39;;;;;;;;;;;;;;;21.78;42.71;96062.97;10334642;28;1940;-57
2022/05/08 01:43:41;;;;;;;;;;;;;;;21.82;42.60;96066.66;10353506;28;1949;-58
2022/05/08 01:48:42;;;;;;;;;;;;;;;21.78;42.75;96068.25;10352495;28;2109;-55
2022/05/08 01:53:43;;;;;;;;;;;;;;;21.76;42.55;96067.72;10347665;28;1904;-54
2022/05/08 01:58:47;;;;;;;;;;;;;;;21.77;42.52;96069.28;10331115;28;2016;-53
2022/05/08 02:03:48;;;;;;;;;;;;;;;21.77;42.40;96079.84;10332898;28;2069;-55
2022/05/08 02:08:48;;;;;;;;;;;;;;;21.78;42.55;96076.91;10321676;28;2143;-52
2022/05/08 02:13:49;;;;;;;;;;;;;;;21.75;42.59;96077.47;10335468;28;2082;-55
2022/05/08 02:18:49;;;;;;;;;;;;;;;21.76;42.42;96078.28;10351573;28;2011;-57
2022/05/08 02:23:49;;;;;;;;;;;;;;;21.71;42.57;96075.66;10352337;28;2043;-56
2022/05/08 02:28:50;;;;;;;;;;;;;;;21.73;42.59;96073.53;10344346;28;4135;-54
2022/05/08 02:33:50;;;;;;;;;;;;;;;21.72;42.34;96074.63;10349400;28;4528;-55
2022/05/08 02:38:51;;;;;;;;;;;;;;;21.74;42.62;96065.34;10345371;28;2018;-54
2022/05/08 02:43:51;;;;;;;;;;;;;;;21.73;42.68;96069.06;10350556;28;1951;-55
2022/05/08 02:48:52;;;;;;;;;;;;;;;21.75;42.54;96068.78;10347831;28;1956;-54
2022/05/08 02:53:52;;;;;;;;;;;;;;;21.73;42.32;96058.50;10330820;28;1897;-54
2022/05/08 02:58:52;;;;;;;;;;;;;;;21.74;42.54;96073.25;10352659;28;2015;-55
2022/05/08 03:03:53;;;;;;;;;;;;;;;21.77;42.46;96074.56;10344308;28;2044;-56
2022/05/08 03:08:54;;;;;;;;;;;;;;;21.79;42.46;96072.44;10359106;28;1914;-53
2022/05/08 03:13:55;;;;;;;;;;;;;;;21.78;42.37;96061.09;10359823;28;2136;-57
2022/05/08 03:18:56;;;;;;;;;;;;;;;21.79;42.42;96067.16;10345679;28;1941;-56
2022/05/08 03:23:57;;;;;;;;;;;;;;;21.79;42.35;96072.44;10336311;28;1973;-54
2022/05/08 03:28:58;;;;;;;;;;;;;;;21.77;42.13;96074.56;10340005;28;2971;-54
2022/05/08 03:33:58;;;;;;;;;;;;;;;21.79;42.28;96069.81;10332741;28;4211;-57
2022/05/08 03:38:59;;;;;;;;;;;;;;;21.77;42.37;96064.00;10337803;28;1945;-55
2022/05/08 03:43:59;;;;;;;;;;;;;;;21.75;42.29;96069.56;10342282;28;1940;-53
2022/05/08 03:49:00;;;;;;;;;;;;;;;21.76;42.32;96073.78;10354890;28;1965;-55
2022/05/08 03:54:02;;;;;;;;;;;;;;;21.77;42.30;96070.09;10339901;28;1921;-55
2022/05/08 03:59:02;;;;;;;;;;;;;;;21.74;42.23;96081.16;10354109;28;1890;-56
2022/05/08 04:04:02;;;;;;;;;;;;;;;21.72;42.41;96071.97;10362849;28;1864;-57
2022/05/08 04:09:03;;;;;;;;;;;;;;;21.72;42.18;96071.97;10358053;28;1973;-55
2022/05/08 04:14:03;;;;;;;;;;;;;;;21.74;42.54;96075.13;10355894;28;1935;-54
2022/05/08 04:19:05;;;;;;;;;;;;;;;21.72;42.18;96077.25;10345621;28;1911;-55
2022/05/08 04:24:17;;;;;;;;;;;;;;;21.76;42.35;96080.91;10337738;28;2195;-57
2022/05/08 04:29:18;;;;;;;;;;;;;;;21.74;42.45;96083.81;10337516;28;1968;-56
2022/05/08 04:34:19;;;;;;;;;;;;;;;21.77;42.53;96085.13;10336297;28;4174;-58
2022/05/08 04:39:20;;;;;;;;;;;;;;;21.76;42.83;96094.88;10353959;28;1917;-55
2022/05/08 04:44:20;;;;;;;;;;;;;;;21.76;42.73;96100.16;10354603;28;1866;-55
2022/05/08 04:49:21;;;;;;;;;;;;;;;21.77;42.78;96093.03;10353712;28;1906;-54
2022/05/08 04:54:25;;;;;;;;;;;;;;;21.78;42.80;96094.63;10353678;28;1927;-57
2022/05/08 04:59:25;;;;;;;;;;;;;;;21.78;42.92;96097.25;10340082;28;2037;-57
2022/05/08 05:04:25;;;;;;;;;;;;;;;21.80;42.63;96101.19;10350386;28;2007;-57
2022/05/08 05:09:26;;;;;;;;;;;;;;;21.76;42.64;96110.72;10340745;28;2000;-54
2022/05/08 05:14:26;;;;;;;;;;;;;;;21.73;42.62;96110.47;10333861;28;1868;-56
2022/05/08 05:19:27;;;;;;;;;;;;;;;21.75;42.44;96118.91;10322105;28;1979;-56
2022/05/08 05:24:28;;;;;;;;;;;;;;;21.72;42.72;96116.81;10332433;28;1971;-56
2022/05/08 05:29:28;;;;;;;;;;;;;;;21.69;42.99;96115.50;10349999;28;1926;-56
2022/05/08 05:34:29;;;;;;;;;;;;;;;21.70;42.79;96111.03;10336595;28;4300;-56
2022/05/08 05:39:29;;;;;;;;;;;;;;;21.69;42.65;96117.34;10348749;28;1683;-56
2022/05/08 05:44:29;;;;;;;;;;;;;;;21.68;42.78;96118.41;10351090;28;1927;-56
2022/05/08 05:49:30;;;;;;;;;;;;;;;21.69;42.83;96120.78;10351316;28;1906;-58
2022/05/08 05:54:30;;;;;;;;;;;;;;;21.67;42.80;96125.56;10343025;28;1890;-54
2022/05/08 05:59:31;;;;;;;;;;;;;;;21.69;42.50;96125.28;10336913;28;1808;-56
2022/05/08 06:04:31;;;;;;;;;;;;;;;21.72;42.64;96130.03;10349583;28;1800;-58
2022/05/08 06:09:32;;;;;;;;;;;;;;;21.69;42.61;96133.97;10347379;28;1973;-57
2022/05/08 06:14:33;;;;;;;;;;;;;;;21.73;42.76;96134.22;10354186;28;2001;-57
2022/05/08 06:19:34;;;;;;;;;;;;;;;21.74;42.33;96135.81;10355864;28;1930;-56
2022/05/08 06:24:35;;;;;;;;;;;;;;;21.72;42.53;96140.56;10348203;28;2067;-57
2022/05/08 06:29:37;;;;;;;;;;;;;;;21.71;42.70;96137.13;10333121;28;2032;-55
2022/05/08 06:34:37;;;;;;;;;;;;;;;21.72;42.54;96135.28;10323752;28;4240;-56
2022/05/08 06:39:38;;;;;;;;;;;;;;;21.72;42.40;96138.69;10340337;28;2397;-56
2022/05/08 06:44:39;;;;;;;;;;;;;;;21.71;42.34;96139.78;10357997;28;1812;-54
2022/05/08 06:49:40;;;;;;;;;;;;;;;21.69;42.26;96146.38;10352673;28;1902;-57
2022/05/08 06:54:43;;;;;;;;;;;;;;;21.67;42.46;96143.22;10352191;28;1714;-56
2022/05/08 07:05:05;;;;;;;;;;;;;;;21.69;42.69;96149.81;10347814;28;1985;-55
2022/05/08 07:10:06;;;;;;;;;;;;;;;21.70;42.35;96155.88;10346260;28;2252;-55
2022/05/08 07:15:07;;;;;;;;;;;;;;;21.69;42.72;96155.09;10335989;28;1843;-55
2022/05/08 07:20:08;;;;;;;;;;;;;;;21.71;42.64;96160.09;10359896;28;1918;-57
2022/05/08 07:25:08;;;;;;;;;;;;;;;21.71;42.48;96157.44;10348102;28;1911;-55
2022/05/08 07:30:10;;;;;;;;;;;;;;;21.72;42.32;96157.16;10338369;28;1819;-52
2022/05/08 07:40:29;;;;;;;;;;;;;;;21.75;42.29;96166.41;10337470;28;1769;-56
2022/05/08 07:45:30;;;;;;;;;;;;;;;21.74;42.54;96170.88;10344444;28;1985;-57
2022/05/08 07:50:31;;;;;;;;;;;;;;;21.75;42.39;96166.41;10355136;28;1792;-56
2022/05/08 07:55:32;;;;;;;;;;;;;;;21.75;42.28;96172.47;10360052;28;1793;-56
2022/05/08 08:00:32;;;;;;;;;;;;;;;21.76;42.52;96173.28;10365508;28;1804;-55
2022/05/08 08:05:32;;;;;;;;;;;;;;;21.74;42.36;96178.81;10342906;28;1922;-58
2022/05/08 08:10:33;;;;;;;;;;;;;;;21.71;42.57;96176.72;10349778;28;1852;-58
2022/05/08 08:15:34;;;;;;;;;;;;;;;21.76;41.97;96189.88;10346753;28;1776;-57
2022/05/08 08:20:34;;;;;;;;;;;;;;;21.74;41.54;96191.22;10338370;28;1788;-59
2022/05/08 08:25:34;;;;;;;;;;;;;;;21.71;41.08;96191.75;10336848;28;1981;-56
2022/05/08 08:30:35;;;;;;;;;;;;;;;21.70;40.72;96190.19;10344222;28;1907;-58
2022/05/08 08:35:36;;;;;;;;;;;;;;;21.71;40.54;96197.03;10356803;28;4349;-57
2022/05/08 08:40:39;;;;;;;;;;;;;;;21.76;41.98;96199.66;10336248;28;1827;-57
2022/05/08 08:50:58;;;;;;;;;;;;;;;21.78;42.06;96202.81;10329518;28;2089;-57
2022/05/08 08:56:02;;;;;;;;;;;;;;;21.74;40.97;96197.28;10340331;28;1785;-53
2022/05/08 09:01:02;;;;;;;;;;;;;;;21.73;41.30;96210.75;10354262;28;1765;-55
2022/05/08 09:06:06;;;;;;;;;;;;;;;21.70;43.17;96211.28;10349544;28;1963;-56
2022/05/08 09:11:06;;;;;;;;;;;;;;;21.57;43.50;96211.84;10348173;28;1848;-56
2022/05/08 09:16:07;;;;;;;;;;;;;;;21.50;43.65;96208.69;10339881;28;1986;-57
2022/05/08 09:26:26;;;;;;;;;;;;;;;21.42;43.24;96210.03;10335369;28;1970;-56
2022/05/08 09:31:28;;;;;;;;;;;;;;;21.51;42.87;96215.56;10329351;28;1822;-57
2022/05/08 09:36:29;;;;;;;;;;;;;;;21.54;43.02;96213.16;10326274;28;4281;-58
2022/05/08 09:41:30;;;;;;;;;;;;;;;21.60;43.21;96216.56;10344882;28;1772;-59
2022/05/08 09:46:34;;;;;;;;;;;;;;;21.63;43.40;96211.56;10351494;28;1982;-56
2022/05/08 09:51:35;;;;;;;;;;;;;;;21.67;42.71;96215.25;10354101;28;1816;-57
2022/05/08 09:56:36;;;;;;;;;;;;;;;21.69;42.26;96213.13;10338237;28;1812;-54
2022/05/08 10:01:37;;;;;;;;;;;;;;;21.71;41.84;96204.94;10362876;28;1765;-54
2022/05/08 10:06:38;;;;;;;;;;;;;;;21.71;41.82;96207.59;10349454;28;1924;-55
2022/05/08 10:17:04;;;;;;;;;;;;;;;21.83;41.85;96200.97;10345818;28;2903;-54
2022/05/08 10:22:10;;;;;;;;;;;;;;;21.87;42.03;96214.41;10342844;28;1872;-56
2022/05/08 10:27:11;;;;;;;;;;;;;;;21.89;42.28;96214.94;10338646;28;2028;-55
2022/05/08 10:32:14;;;;;;;;;;;;;;;21.93;42.35;96212.56;10354097;28;1421;-52
2022/05/08 10:37:24;;;;;;;;;;;;;;;21.93;42.05;96210.69;10337592;28;4381;-58
2022/05/08 10:42:28;;;;;;;;;;;;;;;21.98;41.35;96207.25;10339927;28;1720;-54
2022/05/08 10:52:38;;;;;;;;;;;;;;;22.11;42.06;96206.66;10339384;28;1428;-57
2022/05/08 10:57:39;;;;;;;;;;;;;;;22.13;42.36;96210.59;10332632;28;1648;-57
2022/05/08 11:02:40;;;;;;;;;;;;;;;22.12;42.66;96206.38;10357112;28;1524;-56
2022/05/08 11:07:47;;;;;;;;;;;;;;;22.14;42.53;96203.47;10340830;28;1914;-55
2022/05/08 11:13:10;;;;;;;;;;;;;;;22.15;42.49;96203.22;10355012;28;2390;-57
2022/05/08 11:18:17;;;;;;;;;;;;;;;22.15;42.62;96202.41;10335034;28;2019;-59
2022/05/08 11:23:17;;;;;;;;;;;;;;;22.17;42.11;96203.72;10331778;28;1945;-58
2022/05/08 11:28:19;;;;;;;;;;;;;;;22.18;42.06;96194.72;10338824;28;1902;-59
2022/05/08 11:39:03;;;;;;;;;;;;;;;22.11;42.31;96201.38;10335796;28;1776;-59
2022/05/08 11:44:12;;;;;;;;;;;;;;;22.09;42.19;96198.97;10336263;28;2037;-59
2022/05/08 11:49:16;;;;;;;;;;;;;;;22.07;42.30;96200.34;10350057;28;1902;-55
2022/05/08 11:54:27;;;;;;;;;;;;;;;22.03;42.31;96196.66;10336093;28;1851;-58
2022/05/08 11:59:30;;;;;;;;;;;;;;;22.00;42.45;96205.91;10343283;28;1797;-58
2022/05/08 12:04:33;;;;;;;;;;;;;;;21.98;42.52;96202.75;10349203;28;1784;-59
2022/05/08 12:09:36;;;;;;;;;;;;;;;21.96;42.54;96204.88;10343505;28;2350;-56
2022/05/08 12:14:39;;;;;;;;;;;;;;;21.94;42.61;96211.47;10336703;28;1843;-58
2022/05/08 12:19:49;;;;;;;;;;;;;;;21.93;42.49;96204.63;10335763;28;1852;-58
2022/05/08 12:24:49;;;;;;;;;;;;;;;21.90;42.44;96200.69;10352571;28;1863;-56
2022/05/08 12:29:50;;;;;;;;;;;;;;;21.91;42.46;96202.25;10338440;28;1914;-55
2022/05/08 12:34:53;;;;;;;;;;;;;;;21.88;42.58;96204.66;10337694;28;4147;-57
2022/05/08 12:39:54;;;;;;;;;;;;;;;21.85;42.76;96203.34;10341116;28;1824;-56
2022/05/08 12:44:54;;;;;;;;;;;;;;;21.83;42.71;96200.97;10346515;28;1784;-58
2022/05/08 12:49:54;;;;;;;;;;;;;;;21.84;42.95;96193.84;10337118;28;1981;-59
2022/05/08 12:54:55;;;;;;;;;;;;;;;21.83;43.00;96192.25;10351686;28;1879;-56
2022/05/08 12:59:55;;;;;;;;;;;;;;;21.85;43.03;96187.50;10352318;28;1832;-57
2022/05/08 13:04:56;;;;;;;;;;;;;;;21.85;42.81;96184.84;10339447;28;1900;-58
2022/05/08 13:09:56;;;;;;;;;;;;;;;21.86;42.84;96186.44;10334781;28;1945;-56
2022/05/08 13:14:56;;;;;;;;;;;;;;;21.88;42.84;96183.53;10346365;28;2058;-54
2022/05/08 13:19:58;;;;;;;;;;;;;;;21.88;42.79;96186.97;10354042;28;1761;-56
2022/05/08 13:24:59;;;;;;;;;;;;;;;21.87;42.63;96188.00;10352318;28;1863;-55
2022/05/08 13:29:59;;;;;;;;;;;;;;;21.88;42.53;96182.47;10338136;28;1910;-56
2022/05/08 13:34:59;;;;;;;;;;;;;;;21.86;42.95;96178.53;10348716;28;4447;-57
2022/05/08 13:40:01;;;;;;;;;;;;;;;21.86;42.80;96178.53;10348126;28;1796;-58
2022/05/08 13:45:01;;;;;;;;;;;;;;;21.84;42.66;96178.78;10335348;28;1840;-59
2022/05/08 13:50:06;;;;;;;;;;;;;;;21.83;42.72;96168.50;10350352;28;1971;-55
2022/05/08 13:55:11;;;;;;;;;;;;;;;21.83;42.99;96173.78;10331973;28;1812;-56
2022/05/08 14:00:14;;;;;;;;;;;;;;;21.83;42.86;96168.50;10348237;28;1836;-57
2022/05/08 14:05:14;;;;;;;;;;;;;;;21.83;42.76;96169.31;10335460;28;1940;-56
2022/05/08 14:10:15;;;;;;;;;;;;;;;21.84;42.69;96175.38;10339138;28;2064;-55
2022/05/08 14:15:16;;;;;;;;;;;;;;;21.86;42.86;96171.38;10335389;28;1863;-56
2022/05/08 14:20:16;;;;;;;;;;;;;;;21.85;42.83;96169.81;10348086;28;1821;-56
2022/05/08 14:25:17;;;;;;;;;;;;;;;21.86;42.91;96160.06;10335192;28;1960;-57
2022/05/08 14:30:18;;;;;;;;;;;;;;;21.89;43.21;96164.78;10338591;28;1839;-54
2022/05/08 14:40:38;;;;;;;;;;;;;;;21.90;43.31;96155.81;10350419;28;1863;-56
2022/05/08 14:45:39;;;;;;;;;;;;;;;21.90;43.23;96150.53;10339129;28;1910;-57
2022/05/08 14:50:39;;;;;;;;;;;;;;;21.93;43.22;96152.63;10328582;28;1728;-60
2022/05/08 14:55:40;;;;;;;;;;;;;;;21.91;43.65;96148.69;10349657;28;1828;-56
2022/05/08 15:00:40;;;;;;;;;;;;;;;21.93;43.62;96144.69;10353841;28;1832;-55
2022/05/08 15:05:42;;;;;;;;;;;;;;;21.97;43.39;96148.38;10361740;28;1989;-58
2022/05/08 15:10:42;;;;;;;;;;;;;;;21.99;43.23;96145.47;10364052;28;1796;-59
2022/05/08 15:15:44;;;;;;;;;;;;;;;22.01;43.49;96152.03;10369978;28;1725;-54
2022/05/08 15:20:44;;;;;;;;;;;;;;;22.06;43.35;96157.31;10337741;28;1864;-54
2022/05/08 15:25:45;;;;;;;;;;;;;;;22.06;43.31;96162.59;10329704;28;1951;-54
2022/05/08 15:30:46;;;;;;;;;;;;;;;22.07;43.29;96163.38;10333679;28;1871;-55
2022/05/08 15:35:46;;;;;;;;;;;;;;;22.08;43.44;96160.47;10331681;28;4043;-52
2022/05/08 15:40:47;;;;;;;;;;;;;;;22.06;43.31;96159.94;10332211;28;4715;-55
2022/05/08 15:45:47;;;;;;;;;;;;;;;22.04;43.33;96164.72;10332880;28;2114;-58
2022/05/08 15:50:48;;;;;;;;;;;;;;;22.06;43.54;96162.59;10340131;28;1871;-56
2022/05/08 15:55:48;;;;;;;;;;;;;;;22.03;43.52;96163.13;10335588;28;1832;-54
2022/05/08 16:00:50;;;;;;;;;;;;;;;22.05;43.34;96161.00;10356489;28;1670;-54
2022/05/08 16:05:51;;;;;;;;;;;;;;;22.04;43.35;96158.63;10354077;28;1953;-54
2022/05/08 16:10:52;;;;;;;;;;;;;;;22.03;43.49;96157.84;10339199;28;1837;-56
2022/05/08 16:26:30;;;;;;;;;;;;;;;22.00;43.35;96154.97;10349577;28;1979;-57
2022/05/08 16:31:31;;;;;;;;;;;;;;;21.97;43.51;96153.66;10354663;28;1855;-57
2022/05/08 16:36:32;;;;;;;;;;;;;;;21.97;43.49;96147.59;10347426;28;4135;-58
2022/05/08 16:41:32;;;;;;;;;;;;;;;21.94;43.47;96141.00;10350244;28;1927;-57
2022/05/08 16:46:33;;;;;;;;;;;;;;;21.97;43.49;96147.59;10310491;28;1975;-56
2022/05/08 16:51:34;;;;;;;;;;;;;;;21.91;43.67;96144.19;10334167;28;1885;-57
2022/05/08 16:56:35;;;;;;;;;;;;;;;21.93;43.63;96149.97;10335347;28;2067;-55
2022/05/08 17:01:35;;;;;;;;;;;;;;;21.92;43.56;96152.91;10337454;28;1817;-54
2022/05/08 17:06:37;;;;;;;;;;;;;;;21.91;43.55;96146.81;10346257;28;1971;-52
2022/05/08 17:11:38;;;;;;;;;;;;;;;21.90;43.71;96147.91;10347351;28;1793;-55
2022/05/08 17:16:38;;;;;;;;;;;;;;;21.92;43.33;96156.34;10326486;28;2926;-56
2022/05/08 17:21:38;;;;;;;;;;;;;;;21.88;43.58;96155.28;10337056;28;1851;-58
2022/05/08 17:31:58;;;;;;;;;;;;;;;21.86;43.73;96163.47;10329835;28;2010;-54
2022/05/08 17:37:00;;;;;;;;;;;;;;;21.85;43.59;96164.53;10320921;28;4258;-54
2022/05/08 17:42:02;;;;;;;;;;;;;;;21.87;43.90;96172.19;10344448;28;1925;-57
2022/05/08 17:47:03;;;;;;;;;;;;;;;21.86;44.47;96170.63;10327672;28;1914;-54
2022/05/08 17:52:04;;;;;;;;;;;;;;;21.88;45.00;96168.50;10331965;28;1859;-55
2022/05/08 17:57:04;;;;;;;;;;;;;;;21.89;45.21;96172.69;10350557;28;1539;-54
2022/05/08 18:07:23;;;;;;;;;;;;;;;21.90;45.55;96166.38;10333417;28;2013;-54
2022/05/08 18:12:26;;;;;;;;;;;;;;;21.91;45.26;96175.84;10350467;28;1887;-52
2022/05/08 18:17:26;;;;;;;;;;;;;;;21.88;45.06;96173.78;10356790;28;1832;-52
2022/05/08 18:22:27;;;;;;;;;;;;;;;21.86;45.01;96184.56;10343882;28;2040;-54
2022/05/08 18:27:28;;;;;;;;;;;;;;;21.87;44.96;96190.66;10336777;28;2040;-52
2022/05/08 18:32:28;;;;;;;;;;;;;;;21.85;44.88;96190.13;10352380;28;1835;-54
2022/05/08 18:37:29;;;;;;;;;;;;;;;21.83;44.99;96200.19;10344659;28;4435;-54
2022/05/08 18:42:29;;;;;;;;;;;;;;;21.83;44.83;96200.19;10357311;28;1851;-53
2022/05/08 18:47:30;;;;;;;;;;;;;;;21.81;45.13;96207.53;10354490;28;1977;-54
2022/05/08 18:52:30;;;;;;;;;;;;;;;21.80;45.07;96209.38;10357432;28;1781;-53
2022/05/08 18:57:30;;;;;;;;;;;;;;;21.82;45.12;96215.22;10351071;28;1854;-55
2022/05/08 19:02:31;;;;;;;;;;;;;;;21.86;44.98;96221.53;10353574;28;1553;-56
2022/05/08 19:07:33;;;;;;;;;;;;;;;21.92;44.92;96227.59;10360614;28;1971;-53
2022/05/08 19:12:33;;;;;;;;;;;;;;;21.86;44.73;96239.22;10337147;28;1871;-52
2022/05/08 19:17:35;;;;;;;;;;;;;;;21.84;44.91;96247.41;10358868;28;1860;-54
2022/05/08 19:22:37;;;;;;;;;;;;;;;21.83;45.05;96253.75;10345286;28;1638;-52
2022/05/08 19:27:37;;;;;;;;;;;;;;;21.84;44.68;96259.81;10357597;28;1902;-54
2022/05/08 19:38:02;;;;;;;;;;;;;;;21.83;45.03;96261.66;10351503;28;4025;-51
2022/05/08 19:43:03;;;;;;;;;;;;;;;21.81;44.83;96268.25;10361332;28;1777;-52
2022/05/08 19:48:04;;;;;;;;;;;;;;;21.77;45.11;96267.19;10367781;28;1944;-50
2022/05/08 19:53:05;;;;;;;;;;;;;;;21.77;44.92;96269.84;10359648;28;1875;-53
2022/05/08 19:58:06;;;;;;;;;;;;;;;21.75;44.72;96271.94;10353398;28;1812;-56
2022/05/08 20:03:06;;;;;;;;;;;;;;;21.71;44.84;96263.78;10336569;28;1733;-53
2022/05/08 20:08:07;;;;;;;;;;;;;;;21.70;44.92;96270.09;10357688;28;1918;-51
2022/05/08 20:13:08;;;;;;;;;;;;;;;21.69;44.65;96268.53;10357814;28;1777;-52
2022/05/08 20:18:08;;;;;;;;;;;;;;;21.69;44.94;96273.81;10373405;28;1769;-52
2022/05/08 20:23:10;;;;;;;;;;;;;;;21.72;44.58;96280.41;10361791;28;1797;-50
2022/05/08 20:28:10;;;;;;;;;;;;;;;21.70;44.50;96285.19;10368341;28;1906;-54
2022/05/08 20:33:10;;;;;;;;;;;;;;;21.71;44.43;96281.47;10371321;28;1883;-51
2022/05/08 20:38:11;;;;;;;;;;;;;;;21.74;44.48;96286.22;10366949;28;4106;-50
2022/05/08 20:43:13;;;;;;;;;;;;;;;21.76;44.37;96284.09;10368327;28;4052;-55
2022/05/08 20:48:13;;;;;;;;;;;;;;;21.74;44.12;96291.50;10373512;28;2048;-54
2022/05/08 20:53:14;;;;;;;;;;;;;;;21.75;44.14;96287.78;10352841;28;2081;-53
2022/05/08 20:58:15;;;;;;;;;;;;;;;21.77;44.07;96296.22;10364209;28;2132;-56
2022/05/08 21:03:15;;;;;;;;;;;;;;;21.78;44.34;96303.09;10352300;28;2449;-53
2022/05/08 21:08:15;;;;;;;;;;;;;;;21.77;43.94;96304.94;10347607;28;1966;-52
2022/05/08 21:13:18;;;;;;;;;;;;;;;21.78;43.91;96318.94;10355031;28;1876;-54
2022/05/08 21:18:18;;;;;;;;;;;;;;;21.79;43.83;96315.22;10370407;28;1855;-55
2022/05/08 21:23:18;;;;;;;;;;;;;;;21.78;43.99;96306.50;10335502;28;1798;-51
2022/05/08 21:28:19;;;;;;;;;;;;;;;21.77;43.82;96312.06;10346746;28;1914;-51
2022/05/08 21:33:19;;;;;;;;;;;;;;;21.76;43.85;96307.84;10357806;28;1820;-50
2022/05/08 21:38:20;;;;;;;;;;;;;;;21.74;43.74;96318.66;10348716;28;1847;-54
2022/05/08 21:43:21;;;;;;;;;;;;;;;21.73;43.79;96318.94;10336339;28;4094;-50
2022/05/08 21:48:22;;;;;;;;;;;;;;;21.73;43.97;96322.38;10350371;28;1914;-50
2022/05/08 21:53:22;;;;;;;;;;;;;;;21.70;43.72;96316.84;10350332;28;1749;-50
2022/05/08 21:58:24;;;;;;;;;;;;;;;21.72;43.86;96317.34;10332129;28;2130;-52
2022/05/08 22:03:25;;;;;;;;;;;;;;;21.69;43.77;96316.03;10338203;28;1816;-52
2022/05/08 22:08:26;;;;;;;;;;;;;;;21.69;43.66;96320.50;10334497;28;1902;-52
2022/05/08 22:13:27;;;;;;;;;;;;;;;21.67;43.78;96323.44;10342599;28;1863;-50
2022/05/08 22:23:47;;;;;;;;;;;;;;;21.71;43.64;96327.13;10336022;28;2137;-52
2022/05/08 22:28:47;;;;;;;;;;;;;;;21.73;43.32;96326.84;10351600;28;2403;-54
2022/05/08 22:33:47;;;;;;;;;;;;;;;21.74;43.11;96328.44;10360094;28;1761;-52
2022/05/08 22:38:47;;;;;;;;;;;;;;;21.73;43.27;96326.84;10350114;28;2202;-54
2022/05/08 22:43:48;;;;;;;;;;;;;;;21.74;43.45;96325.81;10341940;28;4197;-51
2022/05/08 22:48:48;;;;;;;;;;;;;;;21.74;43.19;96328.44;10342112;28;1987;-52
2022/05/08 22:53:48;;;;;;;;;;;;;;;21.72;43.28;96325.28;10340147;28;2004;-53
2022/05/08 22:58:49;;;;;;;;;;;;;;;21.71;43.10;96323.69;10340510;28;1834;-51
2022/05/08 23:03:50;;;;;;;;;;;;;;;21.71;43.35;96318.41;10355549;28;1804;-51
2022/05/08 23:08:50;;;;;;;;;;;;;;;21.73;43.05;96318.94;10352825;28;1898;-54
2022/05/08 23:13:50;;;;;;;;;;;;;;;21.75;43.25;96320.25;10359141;28;1899;-56
2022/05/08 23:18:53;;;;;;;;;;;;;;;21.74;43.03;96323.16;10358547;28;1804;-53
2022/05/08 23:23:53;;;;;;;;;;;;;;;21.73;43.32;96311.81;10339977;28;1824;-54
2022/05/08 23:28:54;;;;;;;;;;;;;;;21.75;43.25;96309.69;10344131;28;1969;-49
2022/05/08 23:33:55;;;;;;;;;;;;;;;21.75;43.14;96311.53;10347315;28;2143;-53
2022/05/08 23:38:55;;;;;;;;;;;;;;;21.74;42.90;96313.38;10340040;28;1990;-52
2022/05/08 23:43:56;;;;;;;;;;;;;;;21.76;43.03;96307.84;10339490;28;4184;-53
2022/05/08 23:48:56;;;;;;;;;;;;;;;21.75;42.93;96306.25;10357870;28;1989;-53
2022/05/08 23:53:56;;;;;;;;;;;;;;;21.75;43.03;96296.50;10343104;28;2186;-52
2022/05/08 23:58:57;;;;;;;;;;;;;;;21.76;42.69;96299.94;10342323;28;1817;-55
